Alpine Hibiscus — V7TZ6 — position and weather

sailwx.info

Track history (hours):
 
Tides and Currents Weather Stations Pressure Air Temp Water Temp Dewpoint Dewpoint Depression Visibility Wind Speed Wind Dir Waves Ship Positions

Alpine Hibiscus

Last reported at 2018-Feb-20 18:08 UTC. Time now 2018-Feb-20 23:10 UTC.
Position N 11°09' W 074°59'.

Length 183 m; draft 7.4 m.

Type: Ship. MMSI: 538003913.

Date/timePositionNaut miles runAvg speedWind from/ knotsBaromVisibWave heightAir tempDewpointWater temp
2018-Feb-20 18:08N 11°09' W 074°59'211.3
2018-Feb-20 17:57N 11°07' W 074°58'4 8.5
2018-Feb-20 17:29N 11°06' W 074°54'3 5.9
2018-Feb-20 17:00N 11°06' W 074°56'4 8.8
2018-Feb-20 16:30N 11°04' W 075°01'6 1.5
2018-Feb-20 12:40N 11°00' W 075°05'513.4
2018-Feb-20 12:20N 11°04' W 075°01'413.1
2018-Feb-20 12:00N 11°05' W 074°57'14 0.8
2018-Feb-19 17:17N 10°57' W 074°46'0 0.0
2018-Feb-19 16:59N 10°57' W 074°46'0 0.0
2018-Feb-19 16:29N 10°57' W 074°46'0 0.0
2018-Feb-19 15:59N 10°57' W 074°46'0 0.0
2018-Feb-19 15:29N 10°57' W 074°46'0 0.0
2018-Feb-19 14:59N 10°57' W 074°46'0 0.0
2018-Feb-19 14:20N 10°57' W 074°46'0 0.0
2018-Feb-19 13:59N 10°57' W 074°46'0 0.0
2018-Feb-19 13:29N 10°57' W 074°46'0 0.0
2018-Feb-19 12:59N 10°57' W 074°46'0 0.0
2018-Feb-19 12:29N 10°57' W 074°46'0 0.0
2018-Feb-19 11:59N 10°57' W 074°46'0 0.0
2018-Feb-19 11:29N 10°57' W 074°46'0 0.0
2018-Feb-19 10:59N 10°57' W 074°46'0 0.0
2018-Feb-19 10:29N 10°57' W 074°46'0 0.0
2018-Feb-19 09:59N 10°57' W 074°46'0 0.0
2018-Feb-19 09:29N 10°57' W 074°46'0 0.0
2018-Feb-19 08:59N 10°57' W 074°46'0 0.0
2018-Feb-19 08:23N 10°57' W 074°46'0 0.0
2018-Feb-19 07:59N 10°57' W 074°46'0 0.0
2018-Feb-19 07:29N 10°57' W 074°46'0 0.0
2018-Feb-19 06:59N 10°57' W 074°46'0 0.0
2018-Feb-19 06:29N 10°57' W 074°46'0 0.0
2018-Feb-19 05:59N 10°57' W 074°46'0 0.0
2018-Feb-19 05:29N 10°57' W 074°46'0 0.0
2018-Feb-19 04:59N 10°57' W 074°46'0 0.0
2018-Feb-19 04:29N 10°57' W 074°46'0 0.0
2018-Feb-19 03:59N 10°57' W 074°46'0 0.0
2018-Feb-19 03:29N 10°57' W 074°46'0 0.0
2018-Feb-19 02:59N 10°57' W 074°46'0 0.0
2018-Feb-19 02:29N 10°57' W 074°46'0 0.0
2018-Feb-19 01:59N 10°57' W 074°46'0 0.0
2018-Feb-19 01:29N 10°57' W 074°46'0 0.0
2018-Feb-19 00:59N 10°57' W 074°46'0 0.0
2018-Feb-18 13:40N 10°57' W 074°46'0 0.0
2018-Feb-18 13:29N 10°57' W 074°46'0 0.0
2018-Feb-18 12:59N 10°57' W 074°46'0 0.0
2018-Feb-18 12:28N 10°57' W 074°46'0 0.0
2018-Feb-18 11:58N 10°57' W 074°46'0 0.0
2018-Feb-18 11:28N 10°57' W 074°46'0 0.0
2018-Feb-18 10:59N 10°57' W 074°46'0 0.0
2018-Feb-18 10:29N 10°57' W 074°46'0 0.0
2018-Feb-18 09:59N 10°57' W 074°46'0 0.0
2018-Feb-18 09:28N 10°57' W 074°46'0 0.0
2018-Feb-18 08:59N 10°57' W 074°46'0 0.0
2018-Feb-18 08:28N 10°57' W 074°46'0 0.0
2018-Feb-18 07:58N 10°57' W 074°46'0 0.0
2018-Feb-18 07:28N 10°57' W 074°46'0 0.0
2018-Feb-18 06:58N 10°57' W 074°46'0 0.0
2018-Feb-18 06:28N 10°57' W 074°46'0 0.0
2018-Feb-18 05:58N 10°57' W 074°46'0 0.0
2018-Feb-18 05:29N 10°57' W 074°46'0 0.0
2018-Feb-18 04:58N 10°57' W 074°46'0 0.0
2018-Feb-18 04:28N 10°57' W 074°46'0 0.0
2018-Feb-18 03:58N 10°57' W 074°46'0 0.0
2018-Feb-18 03:28N 10°57' W 074°46'0 0.0
2018-Feb-18 02:58N 10°57' W 074°46'0 0.0
2018-Feb-18 02:28N 10°57' W 074°46'0 0.0
2018-Feb-18 01:59N 10°57' W 074°46'0 0.0
2018-Feb-18 01:28N 10°57' W 074°46'0 0.0
2018-Feb-18 00:58N 10°57' W 074°46'0 0.0
2018-Feb-18 00:28N 10°57' W 074°46'0 0.0
2018-Feb-17 23:59N 10°57' W 074°46'0 0.0
2018-Feb-17 23:28N 10°57' W 074°46'0 0.0
2018-Feb-17 22:58N 10°57' W 074°46'0 0.0
2018-Feb-17 22:28N 10°57' W 074°46'0 0.0
2018-Feb-17 21:58N 10°57' W 074°46'0 0.0
2018-Feb-17 21:28N 10°57' W 074°46'0 0.0
2018-Feb-17 20:58N 10°57' W 074°46'0 0.0
2018-Feb-17 20:28N 10°57' W 074°46'0 0.0
2018-Feb-17 19:58N 10°57' W 074°46'0 0.0
2018-Feb-17 19:28N 10°57' W 074°46'0 0.0
2018-Feb-17 18:58N 10°57' W 074°46'0 0.0
2018-Feb-17 18:28N 10°57' W 074°46'0 0.0
2018-Feb-17 17:58N 10°57' W 074°46'0 0.0
2018-Feb-17 17:28N 10°57' W 074°46'0 0.0
2018-Feb-17 16:58N 10°57' W 074°46'0 0.0
2018-Feb-17 16:28N 10°57' W 074°46'0 0.0
2018-Feb-17 15:58N 10°57' W 074°46'0 0.0
2018-Feb-17 15:25N 10°57' W 074°46'0 0.0
2018-Feb-17 14:58N 10°57' W 074°46'0 0.0
2018-Feb-17 14:28N 10°57' W 074°46'0 0.0
2018-Feb-17 13:58N 10°57' W 074°46'0 0.0
2018-Feb-17 13:28N 10°57' W 074°46'0 0.0
2018-Feb-17 12:58N 10°57' W 074°46'0 0.0
2018-Feb-17 12:28N 10°57' W 074°46'0 0.0
2018-Feb-17 11:58N 10°57' W 074°46'0 0.0
2018-Feb-17 11:28N 10°57' W 074°46'0 0.0
2018-Feb-17 10:58N 10°57' W 074°46'0 0.0
2018-Feb-17 10:28N 10°57' W 074°46'0 0.0
2018-Feb-17 09:58N 10°57' W 074°46'0 0.0
2018-Feb-17 09:28N 10°57' W 074°46'0 0.0
2018-Feb-17 08:58N 10°57' W 074°46'0 0.0
2018-Feb-17 08:28N 10°57' W 074°46'0 0.0
2018-Feb-17 07:58N 10°57' W 074°46'0 0.0
2018-Feb-17 07:28N 10°57' W 074°46'0 0.0
2018-Feb-17 06:58N 10°57' W 074°46'0 0.0
2018-Feb-17 06:28N 10°57' W 074°46'0 0.0
2018-Feb-17 05:58N 10°57' W 074°46'0 0.0
2018-Feb-17 05:28N 10°57' W 074°46'0 0.0
2018-Feb-17 04:58N 10°57' W 074°46'0 0.0
2018-Feb-17 04:28N 10°57' W 074°46'0 0.0
2018-Feb-17 03:58N 10°57' W 074°46'0 0.0
2018-Feb-17 03:28N 10°57' W 074°46'0 0.0
2018-Feb-17 02:58N 10°57' W 074°46'0 0.0
2018-Feb-17 02:25N 10°57' W 074°46'0 0.0
2018-Feb-17 01:58N 10°57' W 074°46'0 0.0
2018-Feb-17 01:28N 10°57' W 074°46'0 0.0
2018-Feb-17 00:58N 10°57' W 074°46'0 0.0
2018-Feb-17 00:28N 10°57' W 074°46'0 0.0
2018-Feb-16 23:58N 10°57' W 074°46'0 0.0
2018-Feb-16 23:28N 10°57' W 074°46'0 0.0
2018-Feb-16 22:58N 10°57' W 074°46'0 0.0
2018-Feb-16 22:25N 10°57' W 074°46'0 0.0
2018-Feb-16 21:58N 10°57' W 074°46'0 0.0
2018-Feb-16 21:28N 10°57' W 074°46'0 0.0
2018-Feb-16 20:58N 10°57' W 074°46'0 0.0
2018-Feb-16 20:28N 10°57' W 074°46'0 0.0
2018-Feb-16 19:58N 10°57' W 074°46'0 0.0
2018-Feb-16 19:25N 10°57' W 074°46'0 0.0
2018-Feb-16 18:58N 10°57' W 074°46'0 0.0
2018-Feb-16 18:28N 10°57' W 074°46'0 0.0
2018-Feb-16 17:58N 10°57' W 074°46'0 0.0
2018-Feb-16 17:28N 10°57' W 074°46'0 0.0
2018-Feb-16 16:55N 10°57' W 074°46'0 0.0
2018-Feb-16 16:22N 10°57' W 074°46'0 0.0
2018-Feb-16 15:58N 10°57' W 074°46'0 0.0
2018-Feb-16 00:02N 10°57' W 074°46'0 0.2
2018-Feb-15 23:58N 10°57' W 074°45'11 6.0
2018-Feb-15 22:09N 11°06' W 074°51'1 7.9
2018-Feb-15 22:00N 11°07' W 074°52'1 1.3
2018-Feb-15 21:27N 11°07' W 074°53'2 4.5
2018-Feb-15 20:57N 11°08' W 074°55'1 2.8
2018-Feb-15 20:27N 11°09' W 074°56'3 5.4
2018-Feb-15 19:57N 11°11' W 074°57'510.9
2018-Feb-15 19:27N 11°16' W 075°01'  
Track history (hours):
 
Tides and Currents Weather Stations Pressure Air Temp Water Temp Dewpoint Dewpoint Depression Visibility Wind Speed Wind Dir Waves Ship Positions

Alpine Hibiscus

Last reported at 2018-Feb-20 18:08 UTC. Time now 2018-Feb-20 23:10 UTC.
Position N 11°09' W 074°59'.

Length 183 m; draft 7.4 m.

Type: Ship. MMSI: 538003913.

Date/timePositionNaut miles runAvg speedWind from/ knotsBaromVisibWave heightAir tempDewpointWater temp
2018-Feb-20 18:08N 11°09' W 074°59'211.3
2018-Feb-20 17:57N 11°07' W 074°58'4 8.5
2018-Feb-20 17:29N 11°06' W 074°54'3 5.9
2018-Feb-20 17:00N 11°06' W 074°56'4 8.8
2018-Feb-20 16:30N 11°04' W 075°01'6 1.5
2018-Feb-20 12:40N 11°00' W 075°05'513.4
2018-Feb-20 12:20N 11°04' W 075°01'413.1
2018-Feb-20 12:00N 11°05' W 074°57'14 0.8
2018-Feb-19 17:17N 10°57' W 074°46'0 0.0
2018-Feb-19 16:59N 10°57' W 074°46'0 0.0
2018-Feb-19 16:29N 10°57' W 074°46'0 0.0
2018-Feb-19 15:59N 10°57' W 074°46'0 0.0
2018-Feb-19 15:29N 10°57' W 074°46'0 0.0
2018-Feb-19 14:59N 10°57' W 074°46'0 0.0
2018-Feb-19 14:20N 10°57' W 074°46'0 0.0
2018-Feb-19 13:59N 10°57' W 074°46'0 0.0
2018-Feb-19 13:29N 10°57' W 074°46'0 0.0
2018-Feb-19 12:59N 10°57' W 074°46'0 0.0
2018-Feb-19 12:29N 10°57' W 074°46'0 0.0
2018-Feb-19 11:59N 10°57' W 074°46'0 0.0
2018-Feb-19 11:29N 10°57' W 074°46'0 0.0
2018-Feb-19 10:59N 10°57' W 074°46'0 0.0
2018-Feb-19 10:29N 10°57' W 074°46'0 0.0
2018-Feb-19 09:59N 10°57' W 074°46'0 0.0
2018-Feb-19 09:29N 10°57' W 074°46'0 0.0
2018-Feb-19 08:59N 10°57' W 074°46'0 0.0
2018-Feb-19 08:23N 10°57' W 074°46'0 0.0
2018-Feb-19 07:59N 10°57' W 074°46'0 0.0
2018-Feb-19 07:29N 10°57' W 074°46'0 0.0
2018-Feb-19 06:59N 10°57' W 074°46'0 0.0
2018-Feb-19 06:29N 10°57' W 074°46'0 0.0
2018-Feb-19 05:59N 10°57' W 074°46'0 0.0
2018-Feb-19 05:29N 10°57' W 074°46'0 0.0
2018-Feb-19 04:59N 10°57' W 074°46'0 0.0
2018-Feb-19 04:29N 10°57' W 074°46'0 0.0
2018-Feb-19 03:59N 10°57' W 074°46'0 0.0
2018-Feb-19 03:29N 10°57' W 074°46'0 0.0
2018-Feb-19 02:59N 10°57' W 074°46'0 0.0
2018-Feb-19 02:29N 10°57' W 074°46'0 0.0
2018-Feb-19 01:59N 10°57' W 074°46'0 0.0
2018-Feb-19 01:29N 10°57' W 074°46'0 0.0
2018-Feb-19 00:59N 10°57' W 074°46'0 0.0
2018-Feb-18 13:40N 10°57' W 074°46'0 0.0
2018-Feb-18 13:29N 10°57' W 074°46'0 0.0
2018-Feb-18 12:59N 10°57' W 074°46'0 0.0
2018-Feb-18 12:28N 10°57' W 074°46'0 0.0
2018-Feb-18 11:58N 10°57' W 074°46'0 0.0
2018-Feb-18 11:28N 10°57' W 074°46'0 0.0
2018-Feb-18 10:59N 10°57' W 074°46'0 0.0
2018-Feb-18 10:29N 10°57' W 074°46'0 0.0
2018-Feb-18 09:59N 10°57' W 074°46'0 0.0
2018-Feb-18 09:28N 10°57' W 074°46'0 0.0
2018-Feb-18 08:59N 10°57' W 074°46'0 0.0
2018-Feb-18 08:28N 10°57' W 074°46'0 0.0
2018-Feb-18 07:58N 10°57' W 074°46'0 0.0
2018-Feb-18 07:28N 10°57' W 074°46'0 0.0
2018-Feb-18 06:58N 10°57' W 074°46'0 0.0
2018-Feb-18 06:28N 10°57' W 074°46'0 0.0
2018-Feb-18 05:58N 10°57' W 074°46'0 0.0
2018-Feb-18 05:29N 10°57' W 074°46'0 0.0
2018-Feb-18 04:58N 10°57' W 074°46'0 0.0
2018-Feb-18 04:28N 10°57' W 074°46'0 0.0
2018-Feb-18 03:58N 10°57' W 074°46'0 0.0
2018-Feb-18 03:28N 10°57' W 074°46'0 0.0
2018-Feb-18 02:58N 10°57' W 074°46'0 0.0
2018-Feb-18 02:28N 10°57' W 074°46'0 0.0
2018-Feb-18 01:59N 10°57' W 074°46'0 0.0
2018-Feb-18 01:28N 10°57' W 074°46'0 0.0
2018-Feb-18 00:58N 10°57' W 074°46'0 0.0
2018-Feb-18 00:28N 10°57' W 074°46'0 0.0
2018-Feb-17 23:59N 10°57' W 074°46'0 0.0
2018-Feb-17 23:28N 10°57' W 074°46'0 0.0
2018-Feb-17 22:58N 10°57' W 074°46'0 0.0
2018-Feb-17 22:28N 10°57' W 074°46'0 0.0
2018-Feb-17 21:58N 10°57' W 074°46'0 0.0
2018-Feb-17 21:28N 10°57' W 074°46'0 0.0
2018-Feb-17 20:58N 10°57' W 074°46'0 0.0
2018-Feb-17 20:28N 10°57' W 074°46'0 0.0
2018-Feb-17 19:58N 10°57' W 074°46'0 0.0
2018-Feb-17 19:28N 10°57' W 074°46'0 0.0
2018-Feb-17 18:58N 10°57' W 074°46'0 0.0
2018-Feb-17 18:28N 10°57' W 074°46'0 0.0
2018-Feb-17 17:58N 10°57' W 074°46'0 0.0
2018-Feb-17 17:28N 10°57' W 074°46'0 0.0
2018-Feb-17 16:58N 10°57' W 074°46'0 0.0
2018-Feb-17 16:28N 10°57' W 074°46'0 0.0
2018-Feb-17 15:58N 10°57' W 074°46'0 0.0
2018-Feb-17 15:25N 10°57' W 074°46'0 0.0
2018-Feb-17 14:58N 10°57' W 074°46'0 0.0
2018-Feb-17 14:28N 10°57' W 074°46'0 0.0
2018-Feb-17 13:58N 10°57' W 074°46'0 0.0
2018-Feb-17 13:28N 10°57' W 074°46'0 0.0
2018-Feb-17 12:58N 10°57' W 074°46'0 0.0
2018-Feb-17 12:28N 10°57' W 074°46'0 0.0
2018-Feb-17 11:58N 10°57' W 074°46'0 0.0
2018-Feb-17 11:28N 10°57' W 074°46'0 0.0
2018-Feb-17 10:58N 10°57' W 074°46'0 0.0
2018-Feb-17 10:28N 10°57' W 074°46'0 0.0
2018-Feb-17 09:58N 10°57' W 074°46'0 0.0
2018-Feb-17 09:28N 10°57' W 074°46'0 0.0
2018-Feb-17 08:58N 10°57' W 074°46'0 0.0
2018-Feb-17 08:28N 10°57' W 074°46'0 0.0
2018-Feb-17 07:58N 10°57' W 074°46'0 0.0
2018-Feb-17 07:28N 10°57' W 074°46'0 0.0
2018-Feb-17 06:58N 10°57' W 074°46'0 0.0
2018-Feb-17 06:28N 10°57' W 074°46'0 0.0
2018-Feb-17 05:58N 10°57' W 074°46'0 0.0
2018-Feb-17 05:28N 10°57' W 074°46'0 0.0
2018-Feb-17 04:58N 10°57' W 074°46'0 0.0
2018-Feb-17 04:28N 10°57' W 074°46'0 0.0
2018-Feb-17 03:58N 10°57' W 074°46'0 0.0
2018-Feb-17 03:28N 10°57' W 074°46'0 0.0
2018-Feb-17 02:58N 10°57' W 074°46'0 0.0
2018-Feb-17 02:25N 10°57' W 074°46'0 0.0
2018-Feb-17 01:58N 10°57' W 074°46'0 0.0
2018-Feb-17 01:28N 10°57' W 074°46'0 0.0
2018-Feb-17 00:58N 10°57' W 074°46'0 0.0
2018-Feb-17 00:28N 10°57' W 074°46'0 0.0
2018-Feb-16 23:58N 10°57' W 074°46'0 0.0
2018-Feb-16 23:28N 10°57' W 074°46'0 0.0
2018-Feb-16 22:58N 10°57' W 074°46'0 0.0
2018-Feb-16 22:25N 10°57' W 074°46'0 0.0
2018-Feb-16 21:58N 10°57' W 074°46'0 0.0
2018-Feb-16 21:28N 10°57' W 074°46'0 0.0
2018-Feb-16 20:58N 10°57' W 074°46'0 0.0
2018-Feb-16 20:28N 10°57' W 074°46'0 0.0
2018-Feb-16 19:58N 10°57' W 074°46'0 0.0
2018-Feb-16 19:25N 10°57' W 074°46'0 0.0
2018-Feb-16 18:58N 10°57' W 074°46'0 0.0
2018-Feb-16 18:28N 10°57' W 074°46'0 0.0
2018-Feb-16 17:58N 10°57' W 074°46'0 0.0
2018-Feb-16 17:28N 10°57' W 074°46'0 0.0
2018-Feb-16 16:55N 10°57' W 074°46'0 0.0
2018-Feb-16 16:22N 10°57' W 074°46'0 0.0
2018-Feb-16 15:58N 10°57' W 074°46'0 0.0
2018-Feb-16 00:02N 10°57' W 074°46'0 0.2
2018-Feb-15 23:58N 10°57' W 074°45'11 6.0
2018-Feb-15 22:09N 11°06' W 074°51'1 7.9
2018-Feb-15 22:00N 11°07' W 074°52'1 1.3
2018-Feb-15 21:27N 11°07' W 074°53'2 4.5
2018-Feb-15 20:57N 11°08' W 074°55'1 2.8
2018-Feb-15 20:27N 11°09' W 074°56'3 5.4
2018-Feb-15 19:57N 11°11' W 074°57'510.9
2018-Feb-15 19:27N 11°16' W 075°01'  

Dump ship's entire track history